Etusivu
METAR-TAF:

METAR-TAF

Lentoasemat :

Nador, Marokko

Leveyspiiri: 34-59-20N, Pituuspiiri: 003-01-42W, korkeus merenpinnasta: 175 m

Tämänhetkinen sää

Tämä raportti tehtiin 22 minuuttia sitten, kello 00.00 UTC
Tuuli 3 kn pohjoisesta/koillisesta
Lämpötila 18°C
Kosteus 83%
Ilmanpaine 1016 hPa
Näkyvyys 10 km tai enemmän
ei pilviä alle 1500 m:ssä eikä cumulonimbus-pilviä

METAR: GMMW 260000Z 03003KT CAVOK 18/15 Q1016 NOSIG

Aika: 01:22 (00:22 UTC)

Sääennuste

Tämä raportti tehtiin 1 tunti ja 22 minuuttia sitten, kello 23.00 UTC
Ennuste voimassa 26. päivästä klo 00 UTC - 27. päivään klo 06 UTC
Tuuli 4 kn idästä
Näkyvyys 10 km tai enemmän
ei pilviä alle 1500 m:ssä eikä cumulonimbus-pilviä
Todennäköisyys 30%
26. päivästä klo 04 UTC - 26. päivään klo 08 UTC
Näkyvyys: 4000 m
Hajonneita pilviä 800 ft:n korkeudessa
utua,

TAF: GMMW 252300Z 2600/2706 09004KT CAVOK PROB30 2604/2608 4000 BR BKN008

Säähavainnot ja -ennusteet yli 4000 lentoasemalta (METAR- ja TAF-raportit).

Käytössä olevat sääasemat on merkitty karttaan keltaisilla ja punaisilla pisteillä.

Aseta hiiri pisteen päälle nähdäksesi sääaseman nimen.

Klikkaa sitten nähdäksesi säähavainnot ja -ennusteet.

Kartan vaihtaminen: klikkaa mustalla rastilla varustettuja vihreitä pisteitä, niin voit zoomata sisään; viivalla varustettua vihreää pistettä, niin voit zoomata ulos tai vihreitä nuolia, niin pääset viereisille kartoille.


METAR-TAF: